createdAt,value
2018-03-12T00:00:53.874Z,10.35
2018-03-12T00:01:54.021Z,10.20
2018-03-12T00:02:54.171Z,10.33
2018-03-12T00:03:54.339Z,10.30
2018-03-12T00:04:54.479Z,10.23
2018-03-12T00:05:54.635Z,10.17
2018-03-12T00:06:54.791Z,10.09
2018-03-12T00:07:54.942Z,10.07
2018-03-12T00:08:55.089Z,10.16
2018-03-12T00:09:55.247Z,10.12
2018-03-12T00:10:55.392Z,10.16
2018-03-12T00:11:55.549Z,10.12
2018-03-12T00:12:55.707Z,10.13
2018-03-12T00:13:55.857Z,10.13
2018-03-12T00:14:56.012Z,10.13
2018-03-12T00:15:56.161Z,10.02
2018-03-12T00:16:56.311Z,10.02
2018-03-12T00:17:56.467Z,9.98
2018-03-12T00:18:56.625Z,9.87
2018-03-12T00:19:56.775Z,9.91
2018-03-12T00:20:56.926Z,9.98
2018-03-12T00:21:57.075Z,10.01
2018-03-12T00:22:57.231Z,9.98
2018-03-12T00:23:57.384Z,9.99
2018-03-12T00:24:57.547Z,9.92
2018-03-12T00:25:57.692Z,9.95
2018-03-12T00:26:57.846Z,9.98
2018-03-12T00:27:57.997Z,10.10
2018-03-12T00:28:58.144Z,9.98
2018-03-12T00:29:58.307Z,10.12
2018-03-12T00:30:58.456Z,10.01
2018-03-12T00:31:58.610Z,10.10
2018-03-12T00:32:58.760Z,10.12
2018-03-12T00:33:58.925Z,10.07
2018-03-12T00:34:59.350Z,10.16
2018-03-12T00:35:59.226Z,10.13
2018-03-12T00:36:59.377Z,10.19
2018-03-12T00:38:59.672Z,10.13
2018-03-12T00:39:59.825Z,10.12
2018-03-12T00:40:59.975Z,10.07
2018-03-12T00:42:00.137Z,10.05
2018-03-12T00:43:00.290Z,10.02
2018-03-12T00:44:00.448Z,10.05
2018-03-12T00:45:00.600Z,9.99
2018-03-12T00:46:00.745Z,9.84
2018-03-12T00:47:00.894Z,9.92
2018-03-12T00:48:01.045Z,9.80
2018-03-12T00:49:01.204Z,9.80
2018-03-12T00:50:01.355Z,9.77
2018-03-12T00:51:01.514Z,9.76
2018-03-12T00:52:01.703Z,9.76
2018-03-12T00:53:01.815Z,9.68
2018-03-12T00:54:01.963Z,9.66
2018-03-12T00:55:02.121Z,9.58
2018-03-12T00:56:02.273Z,9.64
2018-03-12T00:57:02.430Z,9.62
2018-03-12T00:58:02.580Z,9.65
2018-03-12T00:59:02.734Z,9.56
2018-03-12T01:00:02.891Z,9.62
2018-03-12T01:01:03.036Z,9.64
2018-03-12T01:02:03.184Z,9.77
2018-03-12T01:03:03.339Z,9.73
2018-03-12T01:04:03.493Z,9.74
2018-03-12T01:05:03.644Z,9.65
2018-03-12T01:06:03.796Z,9.66
2018-03-12T01:07:03.951Z,9.62
2018-03-12T01:08:04.100Z,9.65
2018-03-12T01:09:04.257Z,9.65
2018-03-12T01:10:04.405Z,9.58
2018-03-12T01:11:04.556Z,9.65
2018-03-12T01:12:04.708Z,9.51
2018-03-12T01:13:04.862Z,9.68
2018-03-12T01:14:05.011Z,9.64
2018-03-12T01:15:05.165Z,9.69
2018-03-12T01:16:05.317Z,9.62
2018-03-12T01:17:05.468Z,9.73
2018-03-12T01:18:05.622Z,9.79
2018-03-12T01:19:05.772Z,9.82
2018-03-12T01:20:05.922Z,9.83
2018-03-12T01:21:06.079Z,9.82
2018-03-12T01:22:06.230Z,9.97
2018-03-12T01:23:06.384Z,9.82
2018-03-12T01:24:06.539Z,9.97
2018-03-12T01:25:06.686Z,9.87
2018-03-12T01:26:06.839Z,9.87
2018-03-12T01:27:06.995Z,9.95
2018-03-12T01:28:07.155Z,9.87
2018-03-12T01:29:07.356Z,9.98
2018-03-12T01:30:07.461Z,10.01
2018-03-12T01:31:07.611Z,9.97
2018-03-12T01:32:07.758Z,10.07
2018-03-12T01:33:07.932Z,10.12
2018-03-12T01:34:08.059Z,10.09
2018-03-12T01:35:08.215Z,10.05
2018-03-12T01:36:08.376Z,10.15
2018-03-12T01:37:08.514Z,10.16
2018-03-12T01:38:08.664Z,10.19
2018-03-12T01:39:08.824Z,10.13
2018-03-12T01:40:08.971Z,10.19
2018-03-12T01:41:09.123Z,10.22
2018-03-12T01:42:09.281Z,10.19
2018-03-12T01:43:09.436Z,10.34
2018-03-12T01:44:09.585Z,10.31
2018-03-12T01:45:09.733Z,10.20
2018-03-12T01:46:09.892Z,10.31
2018-03-12T01:47:10.046Z,10.20
2018-03-12T01:48:10.199Z,10.35
2018-03-12T01:49:10.348Z,10.31
2018-03-12T01:50:10.498Z,10.31
2018-03-12T01:51:10.649Z,10.34
2018-03-12T01:52:10.805Z,10.48
2018-03-12T01:53:10.959Z,10.34
2018-03-12T01:54:11.109Z,10.42
2018-03-12T01:55:11.270Z,10.49
2018-03-12T01:56:11.412Z,10.40
2018-03-12T01:57:11.574Z,10.37
2018-03-12T01:58:11.732Z,10.35
2018-03-12T01:59:11.861Z,10.42
2018-03-12T02:00:12.015Z,10.35
2018-03-12T02:01:12.171Z,10.30
2018-03-12T02:02:12.328Z,10.33
2018-03-12T02:03:12.472Z,10.33
2018-03-12T02:04:12.630Z,10.42
2018-03-12T02:05:12.781Z,10.31
2018-03-12T02:06:12.932Z,10.41
2018-03-12T02:07:13.089Z,10.42
2018-03-12T02:08:13.238Z,10.41
2018-03-12T02:09:13.390Z,10.35
2018-03-12T02:10:13.545Z,10.34
2018-03-12T02:11:13.697Z,10.31
2018-03-12T02:12:13.851Z,10.34
2018-03-12T02:13:14.002Z,10.25
2018-03-12T02:14:14.142Z,10.31
2018-03-12T02:15:14.297Z,10.23
2018-03-12T02:16:14.457Z,10.34
2018-03-12T02:17:14.609Z,10.30
2018-03-12T02:18:14.759Z,10.25
2018-03-12T02:19:14.914Z,10.26
2018-03-12T02:20:15.302Z,10.34
2018-03-12T02:21:15.215Z,10.34
2018-03-12T02:22:15.367Z,10.38
2018-03-12T02:23:15.527Z,10.34
2018-03-12T02:24:15.682Z,10.34
2018-03-12T02:25:15.834Z,10.31
2018-03-12T02:26:15.994Z,10.38
2018-03-12T02:27:16.140Z,10.40
2018-03-12T02:28:16.291Z,10.30
2018-03-12T02:29:16.441Z,10.31
2018-03-12T02:30:16.602Z,10.34
2018-03-12T02:31:16.758Z,10.35
2018-03-12T02:32:16.909Z,10.40
2018-03-12T02:33:17.056Z,10.30
2018-03-12T02:34:17.215Z,10.33
2018-03-12T02:35:17.360Z,10.37
2018-03-12T02:36:17.508Z,10.31
2018-03-12T02:37:17.665Z,10.34
2018-03-12T02:38:17.821Z,10.26
2018-03-12T02:39:17.971Z,10.35
2018-03-12T02:40:18.136Z,10.30
2018-03-12T02:41:18.276Z,10.34
2018-03-12T02:42:18.427Z,10.33
2018-03-12T02:43:18.585Z,10.35
2018-03-12T02:44:18.745Z,10.33
2018-03-12T02:45:18.892Z,10.31
2018-03-12T02:46:19.043Z,10.28
2018-03-12T02:47:19.191Z,10.23
2018-03-12T02:48:19.343Z,10.13
2018-03-12T02:49:19.499Z,10.07
2018-03-12T02:50:19.652Z,10.10
2018-03-12T02:51:19.810Z,10.07
2018-03-12T02:52:19.956Z,10.19
2018-03-12T02:53:20.113Z,10.20
2018-03-12T02:54:20.261Z,10.16
2018-03-12T02:55:20.411Z,10.26
2018-03-12T02:56:20.572Z,10.20
2018-03-12T02:57:20.733Z,10.23
2018-03-12T02:58:20.878Z,10.25
2018-03-12T02:59:21.034Z,10.35
2018-03-12T03:00:21.190Z,10.31
2018-03-12T03:01:21.340Z,10.40
2018-03-12T03:02:21.494Z,10.46
2018-03-12T03:03:21.645Z,10.40
2018-03-12T03:04:21.800Z,10.31
2018-03-12T03:05:21.951Z,10.33
2018-03-12T03:06:22.106Z,10.41
2018-03-12T03:07:22.259Z,10.35
2018-03-12T03:08:22.413Z,10.57
2018-03-12T03:09:22.562Z,10.44
2018-03-12T03:10:22.750Z,10.40
2018-03-12T03:11:22.904Z,10.34
2018-03-12T03:12:23.052Z,10.38
2018-03-12T03:13:23.205Z,10.34
2018-03-12T03:14:23.359Z,10.34
2018-03-12T03:15:23.514Z,10.37
2018-03-12T03:16:23.668Z,10.33
2018-03-12T03:17:23.823Z,10.42
2018-03-12T03:18:23.972Z,10.51
2018-03-12T03:19:24.131Z,10.40
2018-03-12T03:20:24.280Z,10.51
2018-03-12T03:21:24.437Z,10.46
2018-03-12T03:22:24.589Z,10.56
2018-03-12T03:23:24.741Z,10.38
2018-03-12T03:24:24.895Z,10.42
2018-03-12T03:25:25.052Z,10.44
2018-03-12T03:26:25.191Z,10.38
2018-03-12T03:27:25.347Z,10.48
2018-03-12T03:29:25.644Z,10.51
2018-03-12T03:30:25.799Z,10.42
2018-03-12T03:31:25.949Z,10.41
2018-03-12T03:32:26.100Z,10.34
2018-03-12T03:33:26.268Z,10.33
2018-03-12T03:34:26.418Z,10.30
2018-03-12T03:35:26.574Z,10.35
2018-03-12T03:36:26.732Z,10.40
2018-03-12T03:37:26.871Z,10.33
2018-03-12T03:38:27.023Z,10.44
2018-03-12T03:39:27.176Z,10.33
2018-03-12T03:40:27.338Z,10.26
2018-03-12T03:41:27.484Z,10.30
2018-03-12T03:42:27.637Z,10.37
2018-03-12T03:43:27.791Z,10.26
2018-03-12T03:44:27.942Z,10.31
2018-03-12T03:45:28.094Z,10.34
2018-03-12T03:46:28.251Z,10.31
2018-03-12T03:47:28.407Z,10.37
2018-03-12T03:48:28.561Z,10.34
2018-03-12T03:49:28.714Z,10.38
2018-03-12T03:50:28.867Z,10.33
2018-03-12T03:51:29.017Z,10.44
2018-03-12T03:52:29.169Z,10.41
2018-03-12T03:53:29.603Z,10.38
2018-03-12T03:54:29.478Z,10.48
2018-03-12T03:55:29.637Z,10.40
2018-03-12T03:57:29.929Z,10.44
2018-03-12T03:58:30.076Z,10.34
2018-03-12T03:59:30.232Z,10.41
2018-03-12T04:00:30.384Z,10.41
2018-03-12T04:01:30.940Z,10.37
2018-03-12T04:02:30.689Z,10.34
2018-03-12T04:03:30.839Z,10.33
2018-03-12T04:04:30.991Z,10.31
2018-03-12T04:05:31.147Z,10.35
2018-03-12T04:06:31.298Z,10.33
2018-03-12T04:07:31.460Z,10.31
2018-03-12T04:08:31.614Z,10.33
2018-03-12T04:09:31.757Z,10.30
2018-03-12T04:10:31.904Z,10.35
2018-03-12T04:11:32.063Z,10.34
2018-03-12T04:12:32.216Z,10.31
2018-03-12T04:13:32.376Z,10.25
2018-03-12T04:14:32.530Z,10.23
2018-03-12T04:15:32.676Z,10.10
2018-03-12T04:16:32.825Z,9.98
2018-03-12T04:17:32.980Z,10.17
2018-03-12T04:18:33.130Z,9.95
2018-03-12T04:19:33.286Z,9.95
2018-03-12T04:20:33.436Z,9.91
2018-03-12T04:21:33.868Z,9.97
2018-03-12T04:22:33.740Z,9.95
2018-03-12T04:23:33.894Z,9.87
2018-03-12T04:24:34.044Z,9.98
2018-03-12T04:25:34.204Z,10.02
2018-03-12T04:26:34.359Z,9.97
2018-03-12T04:27:34.509Z,10.15
2018-03-12T04:28:34.657Z,10.10
2018-03-12T04:29:34.816Z,10.17
2018-03-12T04:30:34.964Z,9.99
2018-03-12T04:31:35.114Z,9.99
2018-03-12T04:32:35.263Z,10.09
2018-03-12T04:33:35.410Z,10.07
2018-03-12T04:34:35.562Z,10.09
2018-03-12T04:35:35.732Z,10.13
2018-03-12T04:36:36.151Z,10.13
2018-03-12T04:37:36.016Z,10.09
2018-03-12T04:38:36.172Z,10.13
2018-03-12T04:39:36.321Z,10.16
2018-03-12T04:40:36.486Z,10.15
2018-03-12T04:41:36.634Z,10.17
2018-03-12T04:42:36.808Z,10.10
2018-03-12T04:43:36.942Z,10.10
2018-03-12T04:44:37.100Z,10.05
2018-03-12T04:45:37.255Z,10.02
2018-03-12T04:46:37.408Z,10.09
2018-03-12T04:47:37.559Z,10.17
2018-03-12T04:48:37.713Z,10.23
2018-03-12T04:49:37.868Z,10.17
2018-03-12T04:50:38.020Z,10.23
2018-03-12T04:51:38.180Z,10.10
2018-03-12T04:52:38.330Z,10.04
2018-03-12T04:53:38.484Z,10.10
2018-03-12T04:54:38.637Z,10.13
2018-03-12T04:55:38.788Z,10.01
2018-03-12T04:56:38.949Z,10.09
2018-03-12T04:57:39.093Z,9.98
2018-03-12T04:58:39.243Z,9.97
2018-03-12T04:59:39.393Z,10.05
2018-03-12T05:00:39.546Z,10.10
2018-03-12T05:01:39.704Z,10.09
2018-03-12T05:02:39.855Z,10.15
2018-03-12T05:03:40.005Z,10.13
2018-03-12T05:04:40.162Z,10.12
2018-03-12T05:05:40.305Z,10.19
2018-03-12T05:06:40.459Z,10.12
2018-03-12T05:07:40.612Z,10.19
2018-03-12T05:08:40.759Z,10.10
2018-03-12T05:09:40.913Z,10.16
2018-03-12T05:10:41.067Z,10.13
2018-03-12T05:11:41.221Z,10.17
2018-03-12T05:12:41.374Z,10.09
2018-03-12T05:13:41.527Z,10.02
2018-03-12T05:14:41.676Z,10.01
2018-03-12T05:15:41.832Z,10.10
2018-03-12T05:16:41.991Z,10.07
2018-03-12T05:17:42.136Z,10.13
2018-03-12T05:18:42.288Z,10.13
2018-03-12T05:19:42.439Z,10.23
2018-03-12T05:20:42.594Z,10.16
2018-03-12T05:21:42.751Z,10.16
2018-03-12T05:22:42.897Z,10.19
2018-03-12T05:23:43.062Z,10.17
2018-03-12T05:24:43.202Z,10.28
2018-03-12T05:25:43.356Z,10.26
2018-03-12T05:26:43.507Z,10.25
2018-03-12T05:27:43.662Z,10.31
2018-03-12T05:28:43.814Z,10.23
2018-03-12T05:29:43.970Z,10.31
2018-03-12T05:30:44.128Z,10.15
2018-03-12T05:31:44.292Z,10.22
2018-03-12T05:32:44.452Z,10.22
2018-03-12T05:33:44.598Z,10.34
2018-03-12T05:34:44.773Z,10.35
2018-03-12T05:35:44.960Z,10.34
2018-03-12T05:36:45.055Z,10.34
2018-03-12T05:37:45.207Z,10.31
2018-03-12T05:38:45.363Z,10.28
2018-03-12T05:39:45.511Z,10.20
2018-03-12T05:40:45.664Z,10.17
2018-03-12T05:42:45.964Z,10.15
2018-03-12T05:43:46.117Z,10.01
2018-03-12T05:44:46.276Z,9.94
2018-03-12T05:45:46.423Z,9.89
2018-03-12T05:46:46.576Z,9.91
2018-03-12T05:47:46.727Z,9.91
2018-03-12T05:48:46.881Z,9.91
2018-03-12T05:49:47.032Z,10.02
2018-03-12T05:50:47.188Z,10.09
2018-03-12T05:51:47.345Z,10.02
2018-03-12T05:52:47.496Z,10.05
2018-03-12T05:53:47.648Z,10.10
2018-03-12T05:54:47.800Z,10.19
2018-03-12T05:55:47.957Z,10.22
2018-03-12T05:56:48.116Z,10.23
2018-03-12T05:57:48.264Z,10.28
2018-03-12T05:58:48.415Z,10.17
2018-03-12T05:59:48.568Z,10.25
2018-03-12T06:00:48.719Z,10.33
2018-03-12T06:01:48.870Z,10.40
2018-03-12T06:02:49.030Z,10.33
2018-03-12T06:03:49.178Z,10.38
2018-03-12T06:04:49.333Z,10.33
2018-03-12T06:05:49.486Z,10.37
2018-03-12T06:06:49.698Z,10.33
2018-03-12T06:07:49.792Z,10.34
2018-03-12T06:08:49.942Z,10.31
2018-03-12T06:09:50.100Z,10.37
2018-03-12T06:10:50.252Z,10.41
2018-03-12T06:11:50.398Z,10.35
2018-03-12T06:12:50.565Z,10.38
2018-03-12T06:13:50.712Z,10.34
2018-03-12T06:14:50.855Z,10.28
2018-03-12T06:15:51.012Z,10.30
2018-03-12T06:16:51.163Z,10.31
2018-03-12T06:17:51.319Z,10.38
2018-03-12T06:18:51.492Z,10.37
2018-03-12T06:19:51.614Z,10.38
2018-03-12T06:20:51.770Z,10.46
2018-03-12T06:21:51.921Z,10.42
2018-03-12T06:22:52.073Z,10.37
2018-03-12T06:23:52.222Z,10.42
2018-03-12T06:24:52.376Z,10.33
2018-03-12T06:25:52.527Z,10.40
2018-03-12T06:26:52.681Z,10.34
2018-03-12T06:27:52.835Z,10.37
2018-03-12T06:28:52.988Z,10.33
2018-03-12T06:29:53.149Z,10.19
2018-03-12T06:30:53.294Z,10.25
2018-03-12T06:31:53.446Z,10.22
2018-03-12T06:32:53.602Z,10.25
2018-03-12T06:33:53.751Z,10.34
2018-03-12T06:34:53.906Z,10.30
2018-03-12T06:35:54.060Z,10.41
2018-03-12T06:36:54.216Z,10.34
2018-03-12T06:37:54.369Z,10.41
2018-03-12T06:38:54.521Z,10.37
2018-03-12T06:39:54.674Z,10.38
2018-03-12T06:40:54.828Z,10.34
2018-03-12T06:41:54.983Z,10.40
2018-03-12T06:42:55.184Z,10.35
2018-03-12T06:43:55.307Z,10.33
2018-03-12T06:44:55.434Z,10.31
2018-03-12T06:45:55.585Z,10.19
2018-03-12T06:46:55.742Z,10.23
2018-03-12T06:47:55.894Z,10.31
2018-03-12T06:48:56.096Z,10.33
2018-03-12T06:49:56.197Z,10.31
2018-03-12T06:50:56.352Z,10.35
2018-03-12T06:51:56.507Z,10.34
2018-03-12T06:52:56.664Z,10.31
2018-03-12T06:53:56.812Z,10.34
2018-03-12T06:54:56.967Z,10.28
2018-03-12T06:55:57.116Z,10.33
2018-03-12T06:56:57.269Z,10.23
2018-03-12T06:57:57.420Z,10.19
2018-03-12T06:58:57.574Z,10.34
2018-03-12T06:59:57.736Z,10.35
2018-03-12T07:00:57.886Z,10.30
2018-03-12T07:01:58.044Z,10.41
2018-03-12T07:02:58.201Z,10.38
2018-03-12T07:03:58.341Z,10.40
2018-03-12T07:04:58.498Z,10.35
2018-03-12T07:05:58.658Z,10.44
2018-03-12T07:06:58.798Z,10.44
2018-03-12T07:07:58.955Z,10.33
2018-03-12T07:08:59.108Z,10.33
2018-03-12T07:09:59.267Z,10.09
2018-03-12T07:10:59.413Z,9.92
2018-03-12T07:11:59.828Z,9.86
2018-03-12T07:12:59.741Z,9.89
2018-03-12T07:13:59.893Z,9.95
2018-03-12T07:15:00.048Z,9.95
2018-03-12T07:16:00.190Z,10.05
2018-03-12T07:17:00.344Z,9.98
2018-03-12T07:18:00.494Z,10.05
2018-03-12T07:19:00.645Z,10.01
2018-03-12T07:20:00.797Z,10.02
2018-03-12T07:21:00.953Z,10.01
2018-03-12T07:22:01.105Z,9.98
2018-03-12T07:23:01.261Z,10.15
2018-03-12T07:24:01.412Z,10.22
2018-03-12T07:25:01.564Z,10.16
2018-03-12T07:26:01.719Z,10.19
2018-03-12T07:27:01.874Z,10.15
2018-03-12T07:28:02.023Z,10.12
2018-03-12T07:29:02.172Z,10.12
2018-03-12T07:30:02.337Z,10.22
2018-03-12T07:31:02.479Z,10.19
2018-03-12T07:32:02.632Z,10.30
2018-03-12T07:33:02.788Z,10.23
2018-03-12T07:34:02.935Z,10.25
2018-03-12T07:35:03.094Z,10.30
2018-03-12T07:36:03.257Z,10.23
2018-03-12T07:37:03.402Z,10.17
2018-03-12T07:38:03.550Z,10.16
2018-03-12T07:39:03.709Z,10.10
2018-03-12T07:40:03.869Z,10.04
2018-03-12T07:41:04.016Z,10.07
2018-03-12T07:42:04.166Z,9.91
2018-03-12T07:43:04.363Z,9.95
2018-03-12T07:44:04.467Z,9.92
2018-03-12T07:45:04.618Z,9.94
2018-03-12T07:46:04.773Z,10.02
2018-03-12T07:47:04.930Z,10.02
2018-03-12T07:48:05.083Z,10.04
2018-03-12T07:49:05.237Z,10.07
2018-03-12T07:50:05.391Z,10.12
2018-03-12T07:51:05.538Z,10.13
2018-03-12T07:52:05.705Z,10.09
2018-03-12T07:53:05.862Z,10.16
2018-03-12T07:54:06.026Z,10.12
2018-03-12T07:55:06.153Z,10.16
2018-03-12T07:56:06.309Z,10.19
2018-03-12T07:57:06.459Z,10.20
2018-03-12T07:58:06.609Z,10.16
2018-03-12T07:59:06.770Z,10.28
2018-03-12T08:00:06.917Z,10.31
2018-03-12T08:01:07.068Z,10.28
2018-03-12T08:02:07.231Z,10.41
2018-03-12T08:03:07.385Z,10.33
2018-03-12T08:04:07.526Z,10.30
2018-03-12T08:05:07.678Z,10.34
2018-03-12T08:06:07.827Z,10.34
2018-03-12T08:07:07.987Z,10.35
2018-03-12T08:08:08.123Z,10.35
2018-03-12T08:09:08.286Z,10.26
2018-03-12T08:10:08.427Z,10.34
2018-03-12T08:11:08.584Z,10.33
2018-03-12T08:12:08.735Z,10.34
2018-03-12T08:13:08.888Z,10.35
2018-03-12T08:14:09.041Z,10.38
2018-03-12T08:15:09.188Z,10.42
2018-03-12T08:16:09.345Z,10.46
2018-03-12T08:17:09.499Z,10.35
2018-03-12T08:19:09.803Z,10.20
2018-03-12T08:20:09.961Z,10.31
2018-03-12T08:21:10.107Z,10.40
2018-03-12T08:22:10.264Z,10.33
2018-03-12T08:23:10.417Z,10.33
2018-03-12T08:24:10.570Z,10.33
2018-03-12T08:25:10.723Z,10.20
2018-03-12T08:26:10.891Z,10.26
2018-03-12T08:27:11.033Z,10.31
2018-03-12T08:28:11.248Z,10.26
2018-03-12T08:29:11.339Z,10.25
2018-03-12T08:30:11.491Z,10.20
2018-03-12T08:31:11.644Z,10.19
2018-03-12T08:32:11.788Z,10.30
2018-03-12T08:33:11.936Z,10.26
2018-03-12T08:34:12.084Z,10.37
2018-03-12T08:35:12.287Z,10.31
2018-03-12T08:36:12.387Z,10.35
2018-03-12T08:37:12.539Z,10.35
2018-03-12T08:38:12.701Z,10.40
2018-03-12T08:39:12.856Z,10.40
2018-03-12T08:40:12.999Z,10.46
2018-03-12T08:41:13.158Z,10.57
2018-03-12T08:42:13.317Z,10.59
2018-03-12T08:43:13.462Z,10.60
2018-03-12T08:44:13.612Z,10.59
2018-03-12T08:45:13.765Z,10.60
2018-03-12T08:46:13.918Z,10.64
2018-03-12T08:47:14.081Z,10.67
2018-03-12T08:48:14.236Z,10.64
2018-03-12T08:49:14.374Z,10.69
2018-03-12T08:50:14.534Z,10.67
2018-03-12T08:51:14.717Z,10.72
2018-03-12T08:52:14.838Z,10.74
2018-03-12T08:53:14.996Z,10.82
2018-03-12T08:54:15.145Z,10.75
2018-03-12T08:55:15.293Z,10.75
2018-03-12T08:56:15.447Z,10.78
2018-03-12T08:57:15.607Z,10.74
2018-03-12T08:58:15.754Z,10.64
2018-03-12T08:59:15.922Z,10.69
2018-03-12T09:00:16.060Z,10.67
2018-03-12T09:01:16.214Z,10.63
2018-03-12T09:02:16.379Z,10.74
2018-03-12T09:03:16.521Z,10.74
2018-03-12T09:04:16.680Z,10.72
2018-03-12T09:05:16.818Z,10.79
2018-03-12T09:06:16.978Z,10.82
2018-03-12T09:07:17.134Z,10.68
2018-03-12T09:08:17.283Z,10.76
2018-03-12T09:09:17.435Z,10.75
2018-03-12T09:10:17.590Z,10.68
2018-03-12T09:11:17.742Z,10.71
2018-03-12T09:12:17.898Z,10.57
2018-03-12T09:13:18.047Z,10.74
2018-03-12T09:14:18.217Z,10.78
2018-03-12T09:15:18.343Z,10.76
2018-03-12T09:16:18.487Z,10.76
2018-03-12T09:17:18.640Z,10.75
2018-03-12T09:18:18.796Z,10.81
2018-03-12T09:19:18.946Z,10.75
2018-03-12T09:20:19.100Z,10.81
2018-03-12T09:21:19.250Z,10.82
2018-03-12T09:22:19.401Z,10.74
2018-03-12T09:23:19.550Z,10.78
2018-03-12T09:24:19.706Z,10.79
2018-03-12T09:25:19.855Z,10.89
2018-03-12T09:26:20.015Z,10.92
2018-03-12T09:27:20.161Z,10.99
2018-03-12T09:28:20.319Z,10.96
2018-03-12T09:29:20.470Z,10.87
2018-03-12T09:30:20.669Z,10.93
2018-03-12T09:31:20.768Z,11.02
2018-03-12T09:32:20.918Z,11.07
2018-03-12T09:33:21.081Z,11.07
2018-03-12T09:34:21.231Z,11.12
2018-03-12T09:35:21.371Z,11.10
2018-03-12T09:36:21.522Z,11.05
2018-03-12T09:37:21.678Z,11.07
2018-03-12T09:38:21.830Z,10.92
2018-03-12T09:39:21.990Z,10.99
2018-03-12T09:40:22.135Z,10.97
2018-03-12T09:41:22.285Z,10.97
2018-03-12T09:42:22.444Z,10.90
2018-03-12T09:43:22.591Z,10.94
2018-03-12T09:44:22.744Z,10.94
2018-03-12T09:45:22.898Z,11.02
2018-03-12T09:46:23.050Z,11.07
2018-03-12T09:47:23.207Z,11.11
2018-03-12T09:48:23.358Z,11.14
2018-03-12T09:49:23.524Z,11.23
2018-03-12T09:50:23.666Z,11.25
2018-03-12T09:51:23.829Z,11.26
2018-03-12T09:52:23.972Z,11.33
2018-03-12T09:53:24.128Z,11.36
2018-03-12T09:54:24.282Z,11.30
2018-03-12T09:55:24.436Z,11.41
2018-03-12T09:56:24.585Z,11.37
2018-03-12T09:57:24.746Z,11.41
2018-03-12T09:58:24.892Z,11.50
2018-03-12T09:59:25.051Z,11.48
2018-03-12T10:00:25.200Z,11.47
2018-03-12T10:01:25.352Z,11.57
2018-03-12T10:02:25.763Z,11.55
2018-03-12T10:03:25.659Z,11.59
2018-03-12T10:04:25.812Z,11.55
2018-03-12T10:05:25.969Z,11.59
2018-03-12T10:06:26.127Z,11.43
2018-03-12T10:07:26.273Z,11.41
2018-03-12T10:08:26.435Z,11.37
2018-03-12T10:09:26.588Z,11.54
2018-03-12T10:10:26.743Z,11.52
2018-03-12T10:11:26.901Z,11.54
2018-03-12T10:12:27.057Z,11.48
2018-03-12T10:13:27.216Z,11.47
2018-03-12T10:14:27.358Z,11.52
2018-03-12T10:15:27.514Z,11.44
2018-03-12T10:16:27.671Z,11.51
2018-03-12T10:17:27.821Z,11.43
2018-03-12T10:18:28.046Z,11.48
2018-03-12T10:19:28.141Z,11.57
2018-03-12T10:20:28.289Z,11.57
2018-03-12T10:21:28.456Z,11.70
2018-03-12T10:22:28.599Z,11.83
2018-03-12T10:23:28.753Z,11.87
2018-03-12T10:24:28.952Z,11.95
2018-03-12T10:25:29.060Z,11.81
2018-03-12T10:26:29.218Z,11.72
2018-03-12T10:27:29.376Z,11.83
2018-03-12T10:28:29.519Z,12.03
2018-03-12T10:29:30.180Z,12.12
2018-03-12T10:30:30.092Z,12.20
2018-03-12T10:31:30.036Z,12.24
2018-03-12T10:32:30.117Z,12.22
2018-03-12T10:33:30.513Z,12.25
2018-03-12T10:34:30.431Z,12.42
2018-03-12T10:35:30.582Z,12.57
2018-03-12T10:36:30.738Z,12.60
2018-03-12T10:37:30.895Z,12.54
2018-03-12T10:38:31.052Z,12.67
2018-03-12T10:39:31.199Z,12.76
2018-03-12T10:40:31.353Z,12.90
2018-03-12T10:41:31.512Z,12.91
2018-03-12T10:42:31.708Z,12.94
2018-03-12T10:43:31.849Z,13.11
2018-03-12T10:44:32.007Z,13.09
2018-03-12T10:45:32.161Z,13.18
2018-03-12T10:46:32.315Z,13.20
2018-03-12T10:47:32.466Z,13.37
2018-03-12T10:48:32.623Z,13.50
2018-03-12T10:49:32.776Z,13.52
2018-03-12T10:50:32.933Z,13.62
2018-03-12T10:51:33.134Z,13.62
2018-03-12T10:52:33.240Z,13.62
2018-03-12T10:53:33.693Z,13.77
2018-03-12T10:54:33.510Z,13.60
2018-03-12T10:55:33.664Z,13.71
2018-03-12T10:56:33.818Z,13.72
2018-03-12T10:57:33.969Z,13.65
2018-03-12T10:58:34.120Z,13.71
2018-03-12T10:59:34.316Z,13.67
2018-03-12T11:00:34.433Z,13.83
2018-03-12T11:01:34.590Z,13.95
2018-03-12T11:02:34.745Z,13.85
2018-03-12T11:03:34.903Z,13.90
2018-03-12T11:04:35.064Z,13.90
2018-03-12T11:05:35.218Z,13.96
2018-03-12T11:06:35.376Z,13.90
2018-03-12T11:07:35.534Z,13.72
2018-03-12T11:08:35.692Z,13.86
2018-03-12T11:09:35.837Z,13.90
2018-03-12T11:11:36.145Z,14.08
2018-03-12T11:12:36.300Z,14.32
2018-03-12T11:13:36.454Z,14.30
2018-03-12T11:14:36.613Z,14.23
2018-03-12T11:15:36.764Z,14.10
2018-03-12T11:16:36.925Z,14.29
2018-03-12T11:17:37.070Z,14.23
2018-03-12T11:18:37.230Z,14.26
2018-03-12T11:19:37.387Z,14.20
2018-03-12T11:20:37.547Z,14.22
2018-03-12T11:21:37.697Z,14.15
2018-03-12T11:22:37.852Z,14.10
2018-03-12T11:23:38.001Z,14.11
2018-03-12T11:24:38.160Z,14.05
2018-03-12T11:25:38.314Z,13.89
2018-03-12T11:26:38.472Z,14.05
2018-03-12T11:27:38.627Z,14.04
2018-03-12T11:28:38.779Z,13.96
2018-03-12T11:29:38.931Z,13.79
2018-03-12T11:30:39.085Z,13.86
2018-03-12T11:31:39.249Z,13.83
2018-03-12T11:32:39.396Z,13.78
2018-03-12T11:33:39.545Z,13.77
2018-03-12T11:34:39.701Z,13.97
2018-03-12T11:35:39.856Z,14.07
2018-03-12T11:36:40.007Z,14.11
2018-03-12T11:37:40.164Z,14.04
2018-03-12T11:38:40.323Z,13.96
2018-03-12T11:39:40.536Z,14.03
2018-03-12T11:40:40.634Z,13.90
2018-03-12T11:41:40.795Z,13.89
2018-03-12T11:42:40.950Z,13.93
2018-03-12T11:43:41.098Z,14.08
2018-03-12T11:44:41.250Z,13.96
2018-03-12T11:45:41.400Z,13.93
2018-03-12T11:46:41.553Z,13.95
2018-03-12T11:47:41.754Z,13.90
2018-03-12T11:48:41.865Z,13.89
2018-03-12T11:49:42.024Z,13.86
2018-03-12T11:50:42.185Z,13.77
2018-03-12T11:51:42.338Z,13.74
2018-03-12T11:52:42.489Z,13.67
2018-03-12T11:53:42.646Z,13.49
2018-03-12T11:54:42.806Z,13.57
2018-03-12T11:55:42.962Z,13.59
2018-03-12T11:56:43.111Z,13.56
2018-03-12T11:57:43.509Z,13.59
2018-03-12T11:58:43.425Z,13.54
2018-03-12T11:59:43.589Z,13.63
2018-03-12T12:01:43.878Z,13.60
2018-03-12T12:02:44.029Z,13.72
2018-03-12T12:03:44.194Z,13.77
2018-03-12T12:04:44.346Z,13.72
2018-03-12T12:05:44.500Z,13.83
2018-03-12T12:06:44.659Z,14.20
2018-03-12T12:07:44.836Z,14.78
2018-03-12T12:08:44.966Z,14.81
2018-03-12T12:09:45.134Z,14.73
2018-03-12T12:10:45.275Z,14.88
2018-03-12T12:11:45.449Z,14.78
2018-03-12T12:12:45.600Z,14.84
2018-03-12T12:13:45.778Z,14.88
2018-03-12T12:14:45.914Z,14.79
2018-03-12T12:15:46.068Z,14.85
2018-03-12T12:16:46.228Z,14.91
2018-03-12T12:17:46.378Z,14.86
2018-03-12T12:18:46.535Z,14.78
2018-03-12T12:19:46.692Z,14.85
2018-03-12T12:20:46.852Z,14.70
2018-03-12T12:21:47.005Z,14.63
2018-03-12T12:22:47.172Z,14.54
2018-03-12T12:23:47.312Z,14.48
2018-03-12T12:24:47.477Z,14.48
2018-03-12T12:26:47.786Z,14.29
2018-03-12T12:27:47.938Z,14.29
2018-03-12T12:28:48.545Z,14.35
2018-03-12T12:29:48.244Z,14.30
2018-03-12T12:30:48.404Z,14.29
2018-03-12T12:31:48.558Z,14.14
2018-03-12T12:32:48.708Z,14.18
2018-03-12T12:33:48.867Z,14.30
2018-03-12T12:34:49.026Z,14.20
2018-03-12T12:35:49.182Z,14.17
2018-03-12T12:36:49.338Z,14.07
2018-03-12T12:37:49.496Z,14.20
2018-03-12T12:38:49.648Z,14.14
2018-03-12T12:39:49.807Z,14.10
2018-03-12T12:40:49.966Z,14.22
2018-03-12T12:41:50.117Z,14.26
2018-03-12T12:42:50.270Z,14.30
2018-03-12T12:43:50.424Z,14.30
2018-03-12T12:44:50.621Z,14.32
2018-03-12T12:45:50.722Z,14.30
2018-03-12T12:46:50.885Z,14.45
2018-03-12T12:47:51.039Z,14.62
2018-03-12T12:48:51.190Z,14.53
2018-03-12T12:49:51.365Z,14.60
2018-03-12T12:50:51.502Z,14.60
2018-03-12T12:51:51.659Z,14.70
2018-03-12T12:52:51.813Z,14.72
2018-03-12T12:53:51.973Z,14.81
2018-03-12T12:54:52.123Z,14.82
2018-03-12T12:55:52.282Z,14.79
2018-03-12T12:56:52.430Z,14.82
2018-03-12T12:57:52.590Z,14.85
2018-03-12T12:58:52.754Z,14.78
2018-03-12T12:59:52.897Z,14.88
2018-03-12T13:00:53.109Z,14.88
2018-03-12T13:01:53.209Z,14.81
2018-03-12T13:02:53.364Z,14.92
2018-03-12T13:03:53.519Z,14.86
2018-03-12T13:04:53.680Z,14.85
2018-03-12T13:05:53.832Z,14.99